AR20 weather

Lawrence Memorial Heliport
Walnut Ridge, Arkansas, United States

Public forecast

Using degrees Fahrenheit for public forecast. Weather courtesy of forecast.io.

METAR (pilot weather report)

Closest report is Walnut Ridge Regional Airport, 3.7 nm (6.9 km) NE. Retrieved 2019/06/16 06:56 UTC (1 hour ago):

KARG 160656Z AUTO 20010KT 10SM BKN050 25/22 A2985 RMK AO2 SLP108 T02500217

TAF (pilot weather forecast)

Closest forecast is Jonesboro Municipal Airport, 21.4 nm (39.6 km) SE. Retrieved 2019/06/16 06:22 UTC (2 hours ago):

TAF KJBR 160520Z 1606/1706 21011KT P6SM OVC250 FM161500 22013G21KT P6SM VCTS BKN035CB FM170200 21004KT P6SM OVC050